x

Diamond Shoals (41025) Wave Buoy

8:50 - Wed 23rd Apr 2014 All times are EDT. -4 hours from GMT.

  • Sig Wave height 3.9ft
  • Swell Direction
  • Peak Period 8s
  • Average Period 5s
  • Wind
    25mph, 31mph gusts
  • Sea Temp 75°f
  • Aire Temp 62°f
  • Sea Pressure 1006.2mb
  • Diamond Shoals
  • Diamond Shoals

More Historic Weather Station data

Upgrade to MSW Pro to gain access to the past 30 days of data for over 8000 Wavebouys and Weather Stations around the globe.

Join Pro

Comparision Forecast

View Surf forecast
   
mié 04/23 8:50 4ft 8s 5s 25 31 mph 1006.2mb 75f 62f
7:50 4.5ft 8s 5s 27 34 mph 1005.2mb 75f 66f
6:50 4.5ft 9s 5s 20 25 mph 1004.1mb 76f 68f
5:50 4.5ft 7s 5s 22 27 mph 1003.2mb 76f 69f
4:50  -   -   -  20 22 mph 1002.9mb 76f 69f
3:50  -   -   -  22 25 mph 1002.9mb 76f 70f
2:50  -   -   -  18 22 mph 1002.9mb 76f 70f
1:50 6ft 5s 5s 18 22 mph 1003.4mb 76f 69f
12:50 6.5ft 6s 5s 27 31 mph 1003.6mb 76f 71f
mar 04/22 11:50 6ft 8s 5s 27 31 mph 1003.7mb 76f 72f
10:50 5.5ft 6s 5s 27 34 mph 1004.2mb 76f 72f
9:50 5ft 9s 5s 27 31 mph 1004.1mb 76f 73f
8:50 5ft 8s 5s 25 31 mph 1004.4mb 76f 73f
7:50 5ft 9s 5s 25 29 mph 1004.3mb 76f 73f
6:50 5ft 8s 5s 27 31 mph 1004.2mb 76f 73f
5:50 5ft 8s 5s 25 29 mph 1004.7mb 76f 72f
4:50 5ft 8s 5s 25 29 mph 1004.8mb 76f 73f
3:50 5ft 8s 5s 25 29 mph 1005.2mb 76f 72f
2:50 5ft 9s 6s 22 27 mph 1006.5mb 76f 70f
1:50 4.5ft 9s 6s 20 25 mph 1007.6mb 76f 70f
12:50 4.5ft 9s 6s 18 20 mph 1008.3mb 76f 69f
11:50 5ft 9s 7s 16 18 mph 1009.3mb 76f 67f
10:50 5.5ft 8s 8s 13 18 mph 1009.8mb 76f 67f
9:50  -   -   -  9 11 mph 1010.1mb 76f 65f
8:50 5ft 10s 8s 9 11 mph 1010.7mb 76f 64f
7:50 6ft 10s 8s 7 9 mph 1011mb 76f 60f
6:50 7ft 9s 8s 7 9 mph 1011.1mb 76f 56f
5:50 6ft 11s 8s 7 9 mph 1010.8mb 76f 60f
4:50 7ft 9s 8s 9 11 mph 1010.5mb 76f 59f
3:50 7ft 9s 7s 13 16 mph 1010.9mb 76f 57f
2:50 7ft 9s 8s 13 18 mph 1011.1mb 76f 56f
1:50 7ft 9s 8s 18 20 mph 1011.6mb 75f 55f
12:50  -   -   -  16 20 mph 1012.4mb 75f 55f
lun 04/21 11:50 9ft 9s 8s 18 22 mph 1012.6mb 75f 56f
10:50 9ft 11s 8s 18 22 mph 1013mb 75f 56f
9:50 11ft 10s 8s 20 25 mph 1013.3mb 75f 55f
8:50 10ft 11s 8s 20 25 mph 1013.1mb 74f 54f
7:50 8.5ft 10s 7s 22 27 mph 1012.9mb 74f 54f
6:50 10.5ft 10s 8s 25 29 mph 1012.6mb 74f 54f
5:50 8.5ft 10s 7s 25 31 mph 1013.1mb 74f 53f
4:50 9ft 11s 7s 29 36 mph 1012.8mb 73f 53f
3:50 8ft 10s 6s 31 36 mph 1013.2mb 73f 53f
2:50 10ft 11s 7s 31 38 mph 1013.8mb 73f 54f
1:50 11ft 10s 7s 34 40 mph 1013.7mb 73f 55f
12:50 11ft 10s 7s 34 38 mph 1014.1mb 73f 55f
11:50 11.5ft 10s 7s 31 38 mph 1014.3mb 74f 55f
10:50 11.5ft 10s 7s 34 40 mph 1014.3mb 74f 56f
9:50 11ft 11s 7s 34 40 mph 1014.1mb 74f 55f
7:50 12ft 11s 7s 31 40 mph 1013.8mb 74f 58f
6:50 12.5ft 11s 7s 34 38 mph 1013.3mb 75f 57f
5:50 13ft 11s 7s 31 38 mph 1012.9mb 75f 57f
4:50 12ft 11s 7s 34 40 mph 1012.7mb 75f 57f
3:50 14ft 11s 8s 38 45 mph 1012.5mb 75f 58f
2:50 17ft 11s 8s 38 49 mph 1012.3mb 75f 59f
1:50 16.5ft 11s 8s 38 47 mph 1012.9mb 75f 58f
12:50 16.5ft 12s 8s 38 47 mph 1013.6mb 75f 58f
dom 04/20 11:50 17.5ft 12s 9s 36 45 mph 1014.2mb 75f 58f
10:50 15.5ft 11s 8s 36 43 mph 1014.8mb 76f 59f
9:50 18ft 11s 9s 36 43 mph 1014.8mb 76f 60f
8:50 16.5ft 12s 8s 36 45 mph 1014.9mb 76f 60f
7:50 16ft 12s 8s 36 47 mph 1015mb 76f 60f
6:50 16ft 11s 8s 34 40 mph 1015.3mb 76f 61f
5:50 17ft 11s 8s 34 40 mph 1015.3mb 75f 68f
4:50 18ft 11s 9s 31 38 mph 1015.4mb 75f 69f
3:50 16.5ft 11s 8s 34 43 mph 1014.8mb 75f 69f
2:50 16.5ft 12s 8s 36 45 mph 1014.7mb 76f 68f
1:50 18ft 11s 8s 38 45 mph 1014.9mb 76f 68f
12:50 17.5ft 11s 8s 36 45 mph 1015mb 76f 68f
11:50 15.5ft 11s 8s 36 45 mph 1015.5mb 76f 69f
10:50 15ft 11s 8s 36 45 mph 1015.4mb 76f 69f
9:50  -   -   -  36 45 mph 1015.1mb 76f 69f
8:50 16ft 11s 8s 38 45 mph 1014.7mb 76f 68f
7:50 14.5ft 10s 8s 38 49 mph 1014.4mb 76f 67f
6:50 14.5ft 10s 8s 34 43 mph 1014.7mb 76f 67f
5:50 12ft 11s 8s 34 40 mph 1014.8mb 75f 67f
4:50 14ft 10s 8s 34 38 mph 1015.4mb 75f 65f
2:50 14ft 11s 8s 31 40 mph 1015.7mb 75f 63f